Time;durP1;ratioP1;P1;durP2;ratioP2;P2;SDS_P1;SDS_P2;PMS_P1;PMS_P2;Temp;Humidity;BMP_temperature;BMP_pressure;BME280_temperature;BME280_humidity;BME280_pressure;Samples;Min_cycle;Max_cycle;Signal;HPM_P1;HPM_P2
2023/01/11 00:00:44;;;;;;;4.10;1.63;;;;;;;-146.19;100.00;65364.44;10625316;27;20043;-49
2023/01/11 00:06:06;;;;;;;5.22;2.20;;;;;;;-146.19;100.00;65364.44;10638740;27;20035;-47
2023/01/11 00:11:26;;;;;;;3.13;1.60;;;;;;;-146.19;100.00;65364.44;10638292;27;20410;-48
2023/01/11 00:16:47;;;;;;;2.30;1.50;;;;;;;-146.19;100.00;65364.44;10624744;27;20073;-46
2023/01/11 00:22:06;;;;;;;3.55;1.55;;;;;;;-146.19;100.00;65364.44;10624501;27;20099;-47
2023/01/11 00:27:26;;;;;;;3.25;1.52;;;;;;;-146.19;100.00;65364.44;10638132;27;20043;-49
2023/01/11 00:32:45;;;;;;;3.63;1.52;;;;;;;-146.19;100.00;65364.44;10624281;27;20062;-49
2023/01/11 00:38:05;;;;;;;4.15;1.65;;;;;;;-146.19;100.00;65364.44;10637823;27;20072;-48
2023/01/11 00:49:19;;;;;;;3.80;1.25;;;;;;;-146.19;100.00;65364.44;10554587;28;20047;-47
2023/01/11 00:54:39;;;;;;;2.90;1.70;;;;;;;-146.19;100.00;65364.44;10623780;28;20047;-49
2023/01/11 00:59:59;;;;;;;3.10;1.70;;;;;;;-146.19;100.00;65364.44;10623844;28;20104;-48
2023/01/11 01:05:19;;;;;;;2.45;1.38;;;;;;;-146.19;100.00;65364.44;10623153;28;20055;-48
2023/01/11 01:10:38;;;;;;;2.47;1.20;;;;;;;-146.19;100.00;65364.44;10623541;28;20112;-46
2023/01/11 01:15:58;;;;;;;3.47;1.60;;;;;;;-146.19;100.00;65364.44;10623414;28;20061;-47
2023/01/11 01:21:18;;;;;;;3.47;1.42;;;;;;;-146.19;100.00;65364.44;10639391;27;20406;-48
2023/01/11 01:26:37;;;;;;;4.00;1.48;;;;;;;-146.19;100.00;65364.44;10631475;27;20054;-47
2023/01/11 01:31:57;;;;;;;2.50;1.50;;;;;;;-146.19;100.00;65364.44;10631331;27;20058;-49
2023/01/11 01:37:16;;;;;;;4.68;1.20;;;;;;;-146.19;100.00;65364.44;10630906;27;20065;-48
2023/01/11 01:42:35;;;;;;;2.40;1.25;;;;;;;19.50;52.92;97208.38;10630907;27;20055;-49
2023/01/11 01:47:59;;;;;;;1.67;1.20;;;;;;;18.56;55.85;97081.56;10630497;27;20051;-47
2023/01/11 01:53:21;;;;;;;2.33;1.35;;;;;;;18.56;55.84;97059.16;10628625;27;20039;-47
2023/01/11 01:58:44;;;;;;;1.83;1.40;;;;;;;18.54;55.72;97046.00;10630307;27;20387;-48
2023/01/11 02:04:08;;;;;;;2.53;1.38;;;;;;;18.52;55.78;97042.00;10629918;27;20140;-48
2023/01/11 02:09:35;;;;;;;2.80;1.50;;;;;;;18.50;55.85;97042.31;10614418;27;20047;-49
2023/01/11 02:14:55;;;;;;;4.03;1.52;;;;;;;18.50;55.75;97028.03;10627674;27;20039;-47
2023/01/11 02:20:42;;;;;;;2.33;1.40;;;;;;;18.47;55.49;97025.97;10629251;27;20100;-51
2023/01/11 02:26:39;;;;;;;2.95;1.40;;;;;;;18.46;55.76;97027.84;10629042;27;20055;-49
2023/01/11 02:32:20;;;;;;;1.83;0.90;;;;;;;18.46;55.63;97022.44;10628010;27;20051;-47
2023/01/11 02:38:02;;;;;;;2.03;1.20;;;;;;;18.43;55.53;97006.91;10628637;27;20055;-48
2023/01/11 02:49:28;;;;;;;1.50;1.10;;;;;;;18.42;55.47;96994.50;10628110;27;20402;-48
2023/01/11 02:54:52;;;;;;;1.92;1.20;;;;;;;18.41;55.43;96978.66;10627498;27;20494;-50
2023/01/11 03:00:13;;;;;;;3.15;1.27;;;;;;;18.40;55.39;96985.16;10612644;27;20136;-47
2023/01/11 03:05:37;;;;;;;3.22;1.25;;;;;;;18.38;55.43;96985.44;10625804;27;20044;-47
2023/01/11 03:11:03;;;;;;;1.73;1.17;;;;;;;18.36;55.47;96982.28;10626573;27;20499;-48
2023/01/11 03:16:54;;;;;;;2.83;1.20;;;;;;;18.34;55.35;96976.38;10625349;27;20043;-49
2023/01/11 03:22:30;;;;;;;1.80;1.20;;;;;;;18.33;55.33;96959.41;10611344;27;20051;-48
2023/01/11 03:28:15;;;;;;;1.05;0.90;;;;;;;18.31;55.33;96950.84;10611092;27;20058;-47
2023/01/11 03:33:45;;;;;;;2.00;1.20;;;;;;;18.31;55.16;96953.53;10625579;27;20047;-47
2023/01/11 03:39:27;;;;;;;1.60;1.05;;;;;;;18.29;55.30;96942.28;10610717;27;20055;-47
2023/01/11 03:44:51;;;;;;;2.00;1.20;;;;;;;18.28;55.27;96950.66;10624543;27;20563;-48
2023/01/11 03:50:12;;;;;;;1.83;1.00;;;;;;;18.27;55.38;96949.88;10625056;27;20035;-48
2023/01/11 03:55:37;;;;;;;1.35;1.00;;;;;;;18.26;55.14;96942.09;10610122;27;20057;-48
2023/01/11 04:00:58;;;;;;;1.23;0.85;;;;;;;18.25;55.24;96935.91;10625210;27;20047;-47
2023/01/11 04:06:17;;;;;;;1.60;1.10;;;;;;;18.23;55.22;96932.75;10625116;27;20047;-50
2023/01/11 04:11:37;;;;;;;2.33;1.15;;;;;;;18.23;55.09;96931.94;10624831;27;20097;-48
2023/01/11 04:16:56;;;;;;;1.27;1.08;;;;;;;18.21;55.25;96921.47;10624727;27;20061;-49
2023/01/11 04:22:16;;;;;;;1.60;1.00;;;;;;;18.19;55.13;96918.28;10624589;27;20415;-49
2023/01/11 04:27:35;;;;;;;1.25;1.10;;;;;;;18.20;55.07;96919.09;10624419;27;20059;-47
2023/01/11 04:32:57;;;;;;;2.03;1.20;;;;;;;18.17;55.10;96901.63;10637768;27;20092;-49
2023/01/11 04:38:17;;;;;;;1.33;0.90;;;;;;;18.14;55.08;96894.94;10637643;27;20043;-47
2023/01/11 04:43:37;;;;;;;1.92;1.15;;;;;;;18.14;55.14;96886.06;10623264;27;20059;-45
2023/01/11 04:48:56;;;;;;;1.42;0.90;;;;;;;18.13;55.18;96901.47;10637442;27;20379;-49
2023/01/11 04:54:16;;;;;;;1.20;1.00;;;;;;;18.12;55.22;96897.16;10637427;27;20491;-47
2023/01/11 04:59:35;;;;;;;1.70;0.95;;;;;;;18.11;55.24;96902.84;10645540;27;20051;-47
2023/01/11 05:04:54;;;;;;;1.70;0.90;;;;;;;18.09;55.15;96889.72;10632060;27;20054;-48
2023/01/11 05:10:14;;;;;;;1.42;1.23;;;;;;;18.08;55.15;96890.81;10632038;27;20047;-50
2023/01/11 05:15:33;;;;;;;1.67;1.30;;;;;;;18.08;55.57;96881.94;10645349;27;20487;-49
2023/01/11 05:20:53;;;;;;;1.20;1.00;;;;;;;18.08;55.68;96877.31;10631357;27;20112;-47
2023/01/11 05:26:26;;;;;;;1.77;0.90;;;;;;;18.06;55.77;96874.16;10631253;27;20406;-49
2023/01/11 05:31:45;;;;;;;1.52;1.08;;;;;;;18.06;55.91;96874.16;10631174;27;20042;-49
2023/01/11 05:37:05;;;;;;;3.58;0.95;;;;;;;18.05;56.04;96867.16;10630868;27;20047;-49
2023/01/11 05:42:26;;;;;;;0.90;0.80;;;;;;;18.06;56.22;96867.97;10630190;27;20047;-47
2023/01/11 05:47:45;;;;;;;1.30;1.00;;;;;;;18.06;56.33;96863.38;10629598;27;20062;-49
2023/01/11 05:53:05;;;;;;;1.17;0.90;;;;;;;18.06;56.27;96860.66;10630166;27;20058;-46
2023/01/11 05:58:25;;;;;;;1.33;1.10;;;;;;;18.06;56.36;96862.59;10643849;27;20521;-49
2023/01/11 06:03:45;;;;;;;2.33;0.80;;;;;;;18.08;56.35;96866.53;10629287;27;20494;-50
2023/01/11 06:09:05;;;;;;;2.42;0.95;;;;;;;18.09;56.52;96859.25;10628408;27;20104;-48
2023/01/11 06:14:24;;;;;;;3.88;1.38;;;;;;;18.09;56.32;96853.84;10629340;27;20047;-46
2023/01/11 06:19:43;;;;;;;9.15;2.00;;;;;;;18.09;56.50;96843.88;10629218;27;20100;-45
2023/01/11 06:25:03;;;;;;;7.50;1.83;;;;;;;18.11;56.24;96848.94;10629129;27;20047;-48
2023/01/11 06:30:24;;;;;;;10.20;2.33;;;;;;;18.13;56.12;96852.94;10628884;27;20054;-47
2023/01/11 06:35:43;;;;;;;9.20;2.50;;;;;;;18.14;56.26;96848.31;10642376;27;20411;-47
2023/01/11 06:41:07;;;;;;;9.63;2.72;;;;;;;18.15;56.23;96844.50;10628512;27;20054;-49
2023/01/11 06:46:26;;;;;;;9.13;3.15;;;;;;;18.18;56.47;96844.69;10631601;27;20054;-47
2023/01/11 06:51:45;;;;;;;9.90;2.58;;;;;;;18.20;56.37;96832.81;10627758;27;20051;-46
2023/01/11 06:57:05;;;;;;;9.25;2.60;;;;;;;18.21;56.92;96829.78;10627775;27;20460;-47
2023/01/11 07:02:24;;;;;;;9.57;2.80;;;;;;;18.25;54.40;96833.44;10626986;27;20530;-48
2023/01/11 07:07:43;;;;;;;5.60;2.97;;;;;;;17.76;39.49;96836.13;10626667;27;20047;-49
2023/01/11 07:13:03;;;;;;;5.32;2.78;;;;;;;16.96;35.16;96854.06;10627055;27;20411;-49
2023/01/11 07:18:23;;;;;;;5.00;2.67;;;;;;;16.88;40.74;96852.09;10625931;27;20054;-48
2023/01/11 07:23:42;;;;;;;4.28;2.38;;;;;;;17.26;43.14;96847.13;10640361;27;20057;-47
2023/01/11 07:29:01;;;;;;;6.03;2.58;;;;;;;17.56;44.47;96831.28;10606801;27;20498;-47
2023/01/11 07:34:20;;;;;;;3.75;2.35;;;;;;;17.74;45.11;96830.25;10626235;27;20051;-46
2023/01/11 07:39:40;;;;;;;4.07;2.13;;;;;;;17.85;45.32;96822.69;10639476;27;20050;-48
2023/01/11 07:44:59;;;;;;;3.90;2.00;;;;;;;17.94;45.71;96831.63;10625275;27;20055;-48
2023/01/11 07:50:18;;;;;;;3.83;2.05;;;;;;;18.02;46.25;96840.06;10625439;27;20070;-47
2023/01/11 07:55:38;;;;;;;2.90;1.90;;;;;;;18.06;46.63;96836.41;10638794;27;20035;-48
2023/01/11 08:00:59;;;;;;;4.13;2.17;;;;;;;18.10;46.86;96852.75;10624933;27;20054;-47
2023/01/11 08:06:18;;;;;;;3.28;1.98;;;;;;;18.13;47.28;96847.53;10624845;27;20055;-48
2023/01/11 08:17:16;;;;;;;3.17;1.95;;;;;;;18.19;47.88;96840.09;10624644;27;20123;-48
2023/01/11 08:22:35;;;;;;;3.03;1.92;;;;;;;18.24;47.04;96853.41;10637858;27;20487;-48
2023/01/11 08:27:54;;;;;;;4.97;2.00;;;;;;;18.26;47.84;96851.19;10624298;27;20115;-48
2023/01/11 08:33:13;;;;;;;2.90;1.80;;;;;;;18.29;47.99;96855.97;10623951;27;20059;-50
2023/01/11 08:38:33;;;;;;;4.50;1.90;;;;;;;18.32;48.34;96859.94;10624329;27;20054;-49
2023/01/11 08:43:52;;;;;;;3.25;2.03;;;;;;;18.35;48.48;96859.31;10634774;27;20468;-49
2023/01/11 08:49:11;;;;;;;2.75;1.80;;;;;;;18.35;48.72;96860.13;10623435;28;20047;-47
2023/01/11 08:54:31;;;;;;;4.43;2.00;;;;;;;18.40;49.02;96871.84;10623866;28;20058;-46
2023/01/11 08:59:50;;;;;;;3.13;1.73;;;;;;;18.40;49.19;96867.25;10637416;27;20092;-47
2023/01/11 09:05:10;;;;;;;2.92;1.90;;;;;;;18.42;49.47;96867.72;10623629;28;20074;-47
2023/01/11 09:10:29;;;;;;;5.03;1.92;;;;;;;18.44;49.49;96867.41;10607556;28;20069;-46
2023/01/11 09:15:50;;;;;;;3.80;1.70;;;;;;;18.44;49.58;96864.72;10623001;28;20487;-47
2023/01/11 09:21:10;;;;;;;2.20;1.63;;;;;;;18.45;49.88;96858.22;10623514;28;20073;-46
2023/01/11 09:26:30;;;;;;;2.13;1.60;;;;;;;18.45;49.95;96852.84;10623758;28;20051;-48
2023/01/11 09:31:49;;;;;;;2.03;1.23;;;;;;;18.47;50.02;96853.31;10622919;28;20051;-48
2023/01/11 09:37:09;;;;;;;2.85;1.58;;;;;;;18.46;50.06;96841.72;10636860;27;20043;-48
2023/01/11 09:42:34;;;;;;;4.00;1.58;;;;;;;18.47;50.15;96832.53;10625233;27;20050;-46
2023/01/11 09:48:27;;;;;;;2.15;1.55;;;;;;;18.48;50.27;96806.34;10631086;27;20051;-46
2023/01/11 09:53:49;;;;;;;3.58;1.48;;;;;;;18.50;50.43;96796.84;10628665;27;20505;-48
2023/01/11 09:59:23;;;;;;;1.70;1.55;;;;;;;18.51;50.47;96792.22;10629879;27;20055;-46
2023/01/11 10:05:08;;;;;;;1.95;1.30;;;;;;;18.50;50.54;96780.66;10643612;27;20471;-48
2023/01/11 10:10:46;;;;;;;3.20;1.65;;;;;;;18.51;50.75;96770.63;10614700;27;20097;-51
2023/01/11 10:16:20;;;;;;;1.95;1.40;;;;;;;18.51;50.85;96765.25;10615016;27;20051;-47
2023/01/11 10:21:45;;;;;;;2.03;1.40;;;;;;;18.52;51.02;96766.81;10629465;27;20043;-47
2023/01/11 10:27:09;;;;;;;1.55;1.30;;;;;;;18.53;51.08;96758.41;10613747;27;20070;-48
2023/01/11 10:32:56;;;;;;;2.10;1.48;;;;;;;18.54;51.27;96743.00;10627287;27;20042;-45
2023/01/11 10:39:01;;;;;;;1.63;1.35;;;;;;;18.55;51.40;96740.00;10616363;27;20058;-48
2023/01/11 10:44:30;;;;;;;1.92;1.40;;;;;;;18.57;51.34;96737.00;10616799;27;20059;-50
2023/01/11 10:50:14;;;;;;;2.15;1.40;;;;;;;18.59;51.58;96745.56;10628154;27;20058;-47
2023/01/11 10:55:43;;;;;;;1.83;1.48;;;;;;;18.61;51.57;96751.44;10612755;27;20103;-48
2023/01/11 11:01:37;;;;;;;1.88;1.40;;;;;;;18.63;51.70;96746.50;10641302;27;20050;-47
2023/01/11 11:07:10;;;;;;;1.90;1.20;;;;;;;18.65;51.59;96746.97;10627621;27;20078;-47
2023/01/11 11:12:32;;;;;;;3.33;1.20;;;;;;;18.65;51.35;96733.47;10627152;27;20054;-47
2023/01/11 11:17:52;;;;;;;1.83;1.45;;;;;;;18.66;51.17;96724.28;10627193;27;20051;-46
2023/01/11 11:23:15;;;;;;;3.10;1.40;;;;;;;18.68;51.19;96710.47;10626357;27;20042;-45
2023/01/11 11:28:35;;;;;;;1.45;1.10;;;;;;;18.69;50.99;96693.94;10611372;27;20108;-46
2023/01/11 11:33:55;;;;;;;1.80;1.27;;;;;;;18.70;51.26;96684.75;10626138;27;20076;-47
2023/01/11 11:39:20;;;;;;;2.90;1.30;;;;;;;18.73;51.02;96677.91;10626307;27;20062;-49
2023/01/11 11:44:39;;;;;;;1.80;1.30;;;;;;;18.75;51.03;96662.19;10609778;27;20059;-51
2023/01/11 11:50:29;;;;;;;1.75;1.20;;;;;;;18.76;51.13;96648.38;10625107;27;20047;-45
2023/01/11 11:55:49;;;;;;;3.05;1.48;;;;;;;18.80;51.24;96642.34;10617911;27;20051;-49
2023/01/11 12:01:25;;;;;;;1.20;1.10;;;;;;;18.83;51.35;96641.72;10625199;27;20131;-47
2023/01/11 12:07:06;;;;;;;2.78;1.20;;;;;;;18.84;51.27;96640.63;10624750;27;20406;-47
2023/01/11 12:12:26;;;;;;;4.38;1.20;;;;;;;18.87;51.29;96632.66;10638446;27;20046;-54
2023/01/11 12:17:47;;;;;;;1.10;1.00;;;;;;;18.89;51.36;96616.13;10623227;27;20422;-54
2023/01/11 12:23:18;;;;;;;1.38;1.10;;;;;;;18.90;51.05;96601.53;10624284;27;20059;-57
2023/01/11 12:28:59;;;;;;;1.25;1.08;;;;;;;18.92;50.97;96597.38;10624548;27;20047;-57
2023/01/11 12:34:22;;;;;;;1.17;0.90;;;;;;;18.94;51.11;96586.28;10623488;27;20051;-54
2023/01/11 12:39:50;;;;;;;3.20;1.20;;;;;;;18.97;51.04;96588.31;10623638;27;20051;-54
2023/01/11 12:45:38;;;;;;;1.75;1.00;;;;;;;18.99;51.03;96571.78;10623152;27;20507;-53
2023/01/11 12:51:32;;;;;;;1.20;0.93;;;;;;;19.00;50.94;96576.88;10637565;27;20039;-54
2023/01/11 12:57:04;;;;;;;1.33;1.00;;;;;;;19.02;50.90;96571.94;10623474;28;20059;-55
2023/01/11 13:02:35;;;;;;;1.50;1.00;;;;;;;19.05;51.16;96568.59;10608172;28;20550;-54
2023/01/11 13:08:21;;;;;;;1.13;1.02;;;;;;;19.07;51.09;96557.44;10623699;28;20059;-55
2023/01/11 13:14:04;;;;;;;0.93;0.90;;;;;;;19.09;51.13;96547.94;10623544;28;20043;-54
2023/01/11 13:19:36;;;;;;;2.22;1.35;;;;;;;19.10;50.94;96544.09;10628794;27;20054;-58
2023/01/11 13:24:57;;;;;;;1.05;0.82;;;;;;;19.12;50.86;96544.56;10631076;27;20055;-49
2023/01/11 13:30:18;;;;;;;1.80;1.00;;;;;;;19.15;50.85;96540.41;10614587;27;20047;-46
2023/01/11 13:35:54;;;;;;;1.30;1.10;;;;;;;19.16;50.78;96536.59;10643687;27;20035;-47
2023/01/11 13:41:20;;;;;;;0.85;0.85;;;;;;;19.20;50.82;96525.94;10614232;27;20043;-46
2023/01/11 13:46:59;;;;;;;2.50;1.10;;;;;;;19.23;50.87;96527.97;10632405;27;20518;-46
2023/01/11 13:52:30;;;;;;;1.10;1.00;;;;;;;19.23;50.85;96526.06;10629228;27;20058;-48
2023/01/11 13:57:55;;;;;;;1.17;0.95;;;;;;;19.26;50.93;96521.91;10630160;27;20051;-47
2023/01/11 14:03:35;;;;;;;1.08;0.98;;;;;;;19.28;50.86;96522.38;10614974;27;20073;-47
2023/01/11 14:09:09;;;;;;;0.85;0.80;;;;;;;19.28;50.73;96528.56;10614631;27;20388;-47
2023/01/11 14:14:49;;;;;;;1.58;1.00;;;;;;;19.30;50.65;96526.31;10614365;27;20058;-47
2023/01/11 14:20:15;;;;;;;1.23;0.80;;;;;;;19.31;50.62;96525.22;10627618;27;20047;-47
2023/01/11 14:25:57;;;;;;;1.13;0.90;;;;;;;19.32;50.54;96534.09;10629359;27;20066;-47
2023/01/11 14:31:41;;;;;;;1.20;0.90;;;;;;;19.35;50.59;96546.97;10613233;27;20059;-49
2023/01/11 14:37:13;;;;;;;1.33;0.93;;;;;;;19.36;50.59;96553.94;10628798;27;20047;-46
2023/01/11 14:42:51;;;;;;;1.25;1.02;;;;;;;19.38;50.57;96553.63;10612675;27;20498;-49
2023/01/11 14:48:16;;;;;;;0.93;0.77;;;;;;;19.39;50.61;96550.59;10585816;28;20054;-46
2023/01/11 14:53:41;;;;;;;0.88;0.85;;;;;;;19.40;50.41;96535.94;10585625;28;20051;-46
2023/01/11 14:59:03;;;;;;;1.33;1.02;;;;;;;19.42;50.54;96544.50;10584363;28;20070;-46
2023/01/11 15:04:23;;;;;;;1.00;0.90;;;;;;;19.43;50.39;96537.22;10585049;28;20052;-47
2023/01/11 15:09:45;;;;;;;0.82;0.80;;;;;;;19.45;50.30;96538.47;10584952;28;20048;-46
2023/01/11 15:15:13;;;;;;;1.25;0.80;;;;;;;19.45;50.39;96549.28;10584945;28;20059;-47
2023/01/11 15:20:32;;;;;;;1.05;0.95;;;;;;;19.46;50.21;96534.63;10598004;28;20059;-47
2023/01/11 15:26:01;;;;;;;1.13;0.80;;;;;;;19.49;50.24;96550.19;10584552;28;20070;-48
2023/01/11 15:31:37;;;;;;;0.80;0.80;;;;;;;19.49;50.04;96542.09;10583221;28;20048;-49
2023/01/11 15:37:04;;;;;;;0.90;0.90;;;;;;;19.51;50.19;96547.16;10583465;28;20055;-47
2023/01/11 15:42:32;;;;;;;1.27;1.02;;;;;;;19.52;50.03;96541.44;10582971;28;20043;-46
2023/01/11 15:48:26;;;;;;;1.00;1.00;;;;;;;19.55;50.10;96548.88;10540568;28;20059;-49
2023/01/11 15:54:12;;;;;;;0.98;0.90;;;;;;;19.58;50.31;96550.09;10540150;28;20417;-46
2023/01/11 15:59:40;;;;;;;1.17;1.00;;;;;;;19.60;50.41;96549.78;10540708;28;20051;-48
2023/01/11 16:05:15;;;;;;;0.70;0.70;;;;;;;19.61;50.21;96552.16;10540326;28;20056;-47
2023/01/11 16:10:50;;;;;;;1.00;0.90;;;;;;;19.62;50.33;96550.25;10539002;28;20048;-47
2023/01/11 16:16:22;;;;;;;1.17;0.88;;;;;;;19.62;50.21;96552.94;10552156;28;20407;-48
2023/01/11 16:21:43;;;;;;;2.65;1.27;;;;;;;19.64;50.93;96561.50;10538270;28;20052;-47
2023/01/11 16:27:03;;;;;;;2.55;1.00;;;;;;;19.66;51.21;96556.56;10538846;28;20496;-48
2023/01/11 16:32:33;;;;;;;2.88;1.00;;;;;;;19.65;51.40;96557.69;10539442;28;20048;-49
2023/01/11 16:37:57;;;;;;;1.85;0.98;;;;;;;19.66;51.23;96560.09;10539596;28;20415;-48
2023/01/11 16:43:28;;;;;;;2.60;0.80;;;;;;;19.66;51.42;96560.09;10557511;27;20100;-49
2023/01/11 16:49:07;;;;;;;1.13;0.95;;;;;;;19.69;51.17;96566.72;10623510;27;20055;-47
2023/01/11 16:54:31;;;;;;;1.25;0.80;;;;;;;19.70;51.14;96577.22;10650893;27;20054;-47
2023/01/11 17:00:04;;;;;;;1.00;0.77;;;;;;;-146.19;100.00;65364.44;10637011;27;20043;-49
2023/01/11 17:05:23;;;;;;;1.00;0.80;;;;;;;-146.19;100.00;65364.44;10637388;27;20410;-49
2023/01/11 17:10:43;;;;;;;0.90;0.90;;;;;;;-146.19;100.00;65364.44;10651022;27;20474;-47
2023/01/11 17:16:08;;;;;;;1.20;0.80;;;;;;;19.74;50.94;96577.38;10621483;27;20059;-50
2023/01/11 17:21:29;;;;;;;1.30;0.90;;;;;;;-146.19;100.00;65364.44;10649984;27;20053;-47
2023/01/11 17:26:50;;;;;;;1.33;1.00;;;;;;;-146.19;100.00;65364.44;10635708;27;20043;-49
2023/01/11 17:32:17;;;;;;;1.52;1.20;;;;;;;-146.19;100.00;65364.44;10647410;27;20501;-47
2023/01/11 17:37:36;;;;;;;1.20;1.02;;;;;;;-146.19;100.00;65364.44;10635801;27;20047;-49
2023/01/11 17:48:53;;;;;;;1.90;1.00;;;;;;;-146.19;100.00;65364.44;10634885;27;20039;-47
2023/01/11 17:54:20;;;;;;;1.70;1.10;;;;;;;-146.19;100.00;65364.44;10633826;27;20043;-49
2023/01/11 17:59:40;;;;;;;1.48;1.17;;;;;;;-146.19;100.00;65364.44;10620070;27;20058;-48
2023/01/11 18:04:59;;;;;;;1.15;1.00;;;;;;;-146.19;100.00;65364.44;10629199;27;20498;-48
2023/01/11 18:10:21;;;;;;;1.83;1.10;;;;;;;-146.19;100.00;65364.44;10627672;27;20051;-49
2023/01/11 18:15:47;;;;;;;1.75;0.90;;;;;;;-146.19;100.00;65364.44;10628442;27;20188;-49
2023/01/11 18:21:25;;;;;;;1.95;1.02;;;;;;;-146.19;100.00;65364.44;10641300;27;20051;-50
2023/01/11 18:26:46;;;;;;;2.43;1.10;;;;;;;-146.19;100.00;65364.44;10627886;27;20502;-47
2023/01/11 18:32:09;;;;;;;2.65;1.08;;;;;;;-146.19;100.00;65364.44;10628797;27;20043;-46
2023/01/11 18:37:28;;;;;;;1.70;1.30;;;;;;;-146.19;100.00;65364.44;10613210;27;20051;-48
2023/01/11 18:42:50;;;;;;;2.75;1.20;;;;;;;-146.19;100.00;65364.44;10628645;27;20070;-47
2023/01/11 18:48:11;;;;;;;1.75;1.10;;;;;;;-146.19;100.00;65364.44;10642031;27;20406;-47
2023/01/11 18:53:31;;;;;;;2.63;1.30;;;;;;;-146.19;100.00;65364.44;10628091;27;20047;-46
2023/01/11 18:58:50;;;;;;;3.33;1.30;;;;;;;-146.19;100.00;65364.44;10626610;27;20108;-56
2023/01/11 19:04:10;;;;;;;1.70;1.20;;;;;;;-146.19;100.00;65364.44;10627083;27;20043;-53
2023/01/11 19:09:30;;;;;;;2.47;1.17;;;;;;;-146.19;100.00;65364.44;10626378;27;20047;-55
2023/01/11 19:14:50;;;;;;;2.00;1.17;;;;;;;-146.19;100.00;65364.44;10638712;27;20039;-55
2023/01/11 19:20:12;;;;;;;2.17;1.30;;;;;;;-146.19;100.00;65364.44;10625224;27;20096;-56
2023/01/11 19:25:31;;;;;;;2.22;1.40;;;;;;;-146.19;100.00;65364.44;10625748;27;20506;-57
2023/01/11 19:30:52;;;;;;;1.50;1.10;;;;;;;-146.19;100.00;65364.44;10639087;27;20047;-46
2023/01/11 19:36:12;;;;;;;1.73;1.13;;;;;;;-146.19;100.00;65364.44;10624989;27;20051;-60
2023/01/11 19:41:52;;;;;;;1.85;1.10;;;;;;;-146.19;100.00;65364.44;10624973;27;20059;-48
2023/01/11 19:47:14;;;;;;;1.58;1.15;;;;;;;-146.19;100.00;65364.44;10624654;27;20055;-60
2023/01/11 19:52:33;;;;;;;1.10;1.00;;;;;;;-146.19;100.00;65364.44;10625657;27;20054;-60
2023/01/11 19:57:53;;;;;;;5.15;1.10;;;;;;;-146.19;100.00;65364.44;10623789;27;20655;-64
2023/01/11 20:03:12;;;;;;;1.75;1.10;;;;;;;-146.19;100.00;65364.44;10624264;27;20043;-55
2023/01/11 20:08:34;;;;;;;2.95;1.00;;;;;;;-146.19;100.00;65364.44;10623410;27;20388;-52
2023/01/11 20:13:54;;;;;;;3.35;1.30;;;;;;;-146.19;100.00;65364.44;10637542;27;20050;-54
2023/01/11 20:19:13;;;;;;;2.55;1.10;;;;;;;-146.19;100.00;65364.44;10623616;27;20449;-54
2023/01/11 20:24:33;;;;;;;3.03;1.13;;;;;;;-146.19;100.00;65364.44;10623361;27;20054;-54
2023/01/11 20:29:52;;;;;;;3.47;1.17;;;;;;;-146.19;100.00;65364.44;10623753;27;20055;-54
2023/01/11 20:35:12;;;;;;;3.03;1.20;;;;;;;-146.19;100.00;65364.44;10623485;27;20521;-50
2023/01/11 20:40:32;;;;;;;2.38;1.10;;;;;;;-146.19;100.00;65364.44;10623619;27;20047;-50
2023/01/11 20:45:55;;;;;;;2.63;0.90;;;;;;;-146.19;100.00;65364.44;10622340;27;20108;-50
2023/01/11 20:51:15;;;;;;;3.70;1.27;;;;;;;-146.19;100.00;65364.44;10637549;27;20043;-53
2023/01/11 20:56:37;;;;;;;1.85;1.00;;;;;;;-146.19;100.00;65364.44;10622887;28;20452;-55
2023/01/11 21:01:56;;;;;;;3.47;1.20;;;;;;;-146.19;100.00;65364.44;10623025;28;20159;-55
2023/01/11 21:07:16;;;;;;;1.52;0.85;;;;;;;-146.19;100.00;65364.44;10623584;28;20058;-52
2023/01/11 21:12:35;;;;;;;2.90;1.00;;;;;;;-146.19;100.00;65364.44;10623530;28;20465;-49
2023/01/11 21:17:55;;;;;;;4.25;1.25;;;;;;;-146.19;100.00;65364.44;10623534;28;20062;-50
2023/01/11 21:23:16;;;;;;;5.35;1.02;;;;;;;-146.19;100.00;65364.44;10637168;27;20095;-47
2023/01/11 21:28:37;;;;;;;2.25;1.08;;;;;;;-146.19;100.00;65364.44;10623371;28;20043;-49
2023/01/11 21:33:57;;;;;;;1.35;0.82;;;;;;;-146.19;100.00;65364.44;10607784;28;20051;-49
2023/01/11 21:39:16;;;;;;;3.22;1.10;;;;;;;-146.19;100.00;65364.44;10627141;27;20121;-49
2023/01/11 21:44:36;;;;;;;1.73;0.90;;;;;;;-146.19;100.00;65364.44;10630789;27;20057;-50
2023/01/11 21:49:56;;;;;;;1.30;0.80;;;;;;;-146.19;100.00;65364.44;10630810;27;20051;-51
2023/01/11 21:55:15;;;;;;;2.05;0.80;;;;;;;-146.19;100.00;65364.44;10630778;27;20074;-51
2023/01/11 22:00:34;;;;;;;3.75;1.00;;;;;;;-146.19;100.00;65364.44;10630469;27;20096;-52
2023/01/11 22:06:01;;;;;;;2.03;0.80;;;;;;;-146.19;100.00;65364.44;10630375;27;20054;-51
2023/01/11 22:11:20;;;;;;;1.63;0.90;;;;;;;-146.19;100.00;65364.44;10642398;27;20035;-47
2023/01/11 22:16:39;;;;;;;1.35;0.90;;;;;;;-146.19;100.00;65364.44;10630006;27;20047;-47
2023/01/11 22:21:59;;;;;;;1.65;0.90;;;;;;;-146.19;100.00;65364.44;10629600;27;20413;-51
2023/01/11 22:27:20;;;;;;;2.30;0.80;;;;;;;-146.19;100.00;65364.44;10614014;27;20051;-48
2023/01/11 22:32:42;;;;;;;1.45;1.00;;;;;;;-146.19;100.00;65364.44;10643027;27;20088;-47
2023/01/11 22:38:01;;;;;;;0.98;0.77;;;;;;;-146.19;100.00;65364.44;10628626;27;20035;-50
2023/01/11 22:43:21;;;;;;;1.05;0.73;;;;;;;-146.19;100.00;65364.44;10628557;27;20442;-49
2023/01/11 22:48:40;;;;;;;1.17;0.90;;;;;;;-146.19;100.00;65364.44;10642066;27;20051;-50
2023/01/11 22:53:59;;;;;;;1.30;0.90;;;;;;;-146.19;100.00;65364.44;10641488;27;20047;-49
2023/01/11 22:59:19;;;;;;;1.48;0.90;;;;;;;-146.19;100.00;65364.44;10627025;27;20644;-47
2023/01/11 23:04:38;;;;;;;1.08;0.80;;;;;;;-146.19;100.00;65364.44;10627957;27;20051;-47
2023/01/11 23:09:57;;;;;;;0.93;0.77;;;;;;;-146.19;100.00;65364.44;10627626;27;20055;-46
2023/01/11 23:15:16;;;;;;;1.13;0.80;;;;;;;-146.19;100.00;65364.44;10627562;27;20248;-48
2023/01/11 23:20:35;;;;;;;1.17;0.68;;;;;;;-146.19;100.00;65364.44;10627253;27;20050;-49
2023/01/11 23:25:55;;;;;;;1.40;0.90;;;;;;;-146.19;100.00;65364.44;10626580;27;20444;-48
2023/01/11 23:31:17;;;;;;;0.95;0.80;;;;;;;-146.19;100.00;65364.44;10626583;27;20108;-47
2023/01/11 23:36:39;;;;;;;0.85;0.65;;;;;;;-146.19;100.00;65364.44;10626563;27;20051;-47
2023/01/11 23:47:36;;;;;;;0.60;0.60;;;;;;;-146.19;100.00;65364.44;10624800;27;20063;-49
2023/01/11 23:52:56;;;;;;;2.45;0.80;;;;;;;-146.19;100.00;65364.44;10625845;27;20108;-47
2023/01/11 23:58:17;;;;;;;0.65;0.60;;;;;;;-146.19;100.00;65364.44;10625608;27;20058;-49
